sensor_id;sensor_type;location;lat;lon;timestamp;temperature;humidity
48686;DHT22;34485;51.536;3.816;2023-08-06T00:00:38;15.20;99.90
48686;DHT22;34485;51.536;3.816;2023-08-06T00:03:04;15.20;99.90
48686;DHT22;34485;51.536;3.816;2023-08-06T00:05:30;15.20;99.90
48686;DHT22;34485;51.536;3.816;2023-08-06T00:07:56;15.20;99.90
48686;DHT22;34485;51.536;3.816;2023-08-06T00:10:21;15.20;99.90
48686;DHT22;34485;51.536;3.816;2023-08-06T00:12:47;15.20;99.90
48686;DHT22;34485;51.536;3.816;2023-08-06T00:15:13;15.20;99.90
48686;DHT22;34485;51.536;3.816;2023-08-06T00:17:39;15.20;99.90
48686;DHT22;34485;51.536;3.816;2023-08-06T00:20:05;15.20;99.90
48686;DHT22;34485;51.536;3.816;2023-08-06T00:22:36;15.20;99.90
48686;DHT22;34485;51.536;3.816;2023-08-06T00:25:02;15.20;99.90
48686;DHT22;34485;51.536;3.816;2023-08-06T00:27:28;15.20;99.90
48686;DHT22;34485;51.536;3.816;2023-08-06T00:29:54;15.20;99.90
48686;DHT22;34485;51.536;3.816;2023-08-06T00:32:20;15.30;99.90
48686;DHT22;34485;51.536;3.816;2023-08-06T00:34:46;15.30;99.90
48686;DHT22;34485;51.536;3.816;2023-08-06T00:37:11;15.30;99.90
48686;DHT22;34485;51.536;3.816;2023-08-06T00:39:37;15.30;99.90
48686;DHT22;34485;51.536;3.816;2023-08-06T00:42:03;15.30;99.90
48686;DHT22;34485;51.536;3.816;2023-08-06T00:44:28;15.30;99.90
48686;DHT22;34485;51.536;3.816;2023-08-06T00:46:55;15.40;99.90
48686;DHT22;34485;51.536;3.816;2023-08-06T00:49:20;15.40;99.90
48686;DHT22;34485;51.536;3.816;2023-08-06T00:51:47;15.40;99.90
48686;DHT22;34485;51.536;3.816;2023-08-06T00:54:12;15.40;99.90
48686;DHT22;34485;51.536;3.816;2023-08-06T00:56:39;15.40;99.90
48686;DHT22;34485;51.536;3.816;2023-08-06T00:59:06;15.50;99.90
48686;DHT22;34485;51.536;3.816;2023-08-06T01:01:31;15.50;99.90
48686;DHT22;34485;51.536;3.816;2023-08-06T01:03:57;15.50;99.90
48686;DHT22;34485;51.536;3.816;2023-08-06T01:06:35;15.50;99.90
48686;DHT22;34485;51.536;3.816;2023-08-06T01:09:19;15.50;99.90
48686;DHT22;34485;51.536;3.816;2023-08-06T01:14:29;15.50;99.90
48686;DHT22;34485;51.536;3.816;2023-08-06T01:16:59;15.40;99.90
48686;DHT22;34485;51.536;3.816;2023-08-06T01:19:24;15.40;99.90
48686;DHT22;34485;51.536;3.816;2023-08-06T01:21:50;15.40;99.90
48686;DHT22;34485;51.536;3.816;2023-08-06T01:24:16;15.40;99.90
48686;DHT22;34485;51.536;3.816;2023-08-06T01:27:50;15.40;99.90
48686;DHT22;34485;51.536;3.816;2023-08-06T01:32:35;15.40;99.90
48686;DHT22;34485;51.536;3.816;2023-08-06T01:35:04;15.50;99.90
48686;DHT22;34485;51.536;3.816;2023-08-06T01:37:31;15.50;99.90
48686;DHT22;34485;51.536;3.816;2023-08-06T01:39:57;15.50;99.90
48686;DHT22;34485;51.536;3.816;2023-08-06T01:42:23;15.50;99.90
48686;DHT22;34485;51.536;3.816;2023-08-06T01:44:48;15.60;99.90
48686;DHT22;34485;51.536;3.816;2023-08-06T01:47:14;15.60;99.90
48686;DHT22;34485;51.536;3.816;2023-08-06T01:49:39;15.60;99.90
48686;DHT22;34485;51.536;3.816;2023-08-06T01:52:05;15.50;99.90
48686;DHT22;34485;51.536;3.816;2023-08-06T01:54:31;15.50;99.90
48686;DHT22;34485;51.536;3.816;2023-08-06T01:56:57;15.50;99.90
48686;DHT22;34485;51.536;3.816;2023-08-06T01:59:24;15.50;99.90
48686;DHT22;34485;51.536;3.816;2023-08-06T02:01:49;15.50;99.90
48686;DHT22;34485;51.536;3.816;2023-08-06T02:04:15;15.40;99.90
48686;DHT22;34485;51.536;3.816;2023-08-06T02:06:40;15.50;99.90
48686;DHT22;34485;51.536;3.816;2023-08-06T02:09:06;15.50;99.90
48686;DHT22;34485;51.536;3.816;2023-08-06T02:11:31;15.40;99.90
48686;DHT22;34485;51.536;3.816;2023-08-06T02:13:57;15.50;99.90
48686;DHT22;34485;51.536;3.816;2023-08-06T02:16:22;15.40;99.90
48686;DHT22;34485;51.536;3.816;2023-08-06T02:18:48;15.50;99.90
48686;DHT22;34485;51.536;3.816;2023-08-06T02:21:13;15.50;99.90
48686;DHT22;34485;51.536;3.816;2023-08-06T02:23:39;15.50;99.90
48686;DHT22;34485;51.536;3.816;2023-08-06T02:26:05;15.40;99.90
48686;DHT22;34485;51.536;3.816;2023-08-06T02:28:31;15.50;99.90
48686;DHT22;34485;51.536;3.816;2023-08-06T02:30:57;15.50;99.90
48686;DHT22;34485;51.536;3.816;2023-08-06T02:33:23;15.40;99.90
48686;DHT22;34485;51.536;3.816;2023-08-06T02:35:49;15.50;99.90
48686;DHT22;34485;51.536;3.816;2023-08-06T02:38:15;15.50;99.90
48686;DHT22;34485;51.536;3.816;2023-08-06T02:40:46;15.40;99.90
48686;DHT22;34485;51.536;3.816;2023-08-06T02:43:13;15.40;99.90
48686;DHT22;34485;51.536;3.816;2023-08-06T02:45:38;15.30;99.90
48686;DHT22;34485;51.536;3.816;2023-08-06T02:48:04;15.20;99.90
48686;DHT22;34485;51.536;3.816;2023-08-06T02:52:57;15.00;99.90
48686;DHT22;34485;51.536;3.816;2023-08-06T02:55:22;14.90;99.90
48686;DHT22;34485;51.536;3.816;2023-08-06T02:57:48;14.90;99.90
48686;DHT22;34485;51.536;3.816;2023-08-06T03:00:13;14.90;99.90
48686;DHT22;34485;51.536;3.816;2023-08-06T03:02:39;14.90;99.90
48686;DHT22;34485;51.536;3.816;2023-08-06T03:05:05;14.80;99.90
48686;DHT22;34485;51.536;3.816;2023-08-06T03:07:31;14.70;99.90
48686;DHT22;34485;51.536;3.816;2023-08-06T03:09:59;14.70;99.90
48686;DHT22;34485;51.536;3.816;2023-08-06T03:12:26;14.60;99.90
48686;DHT22;34485;51.536;3.816;2023-08-06T03:14:52;14.60;99.90
48686;DHT22;34485;51.536;3.816;2023-08-06T03:17:18;14.50;99.90
48686;DHT22;34485;51.536;3.816;2023-08-06T03:19:43;14.40;99.90
48686;DHT22;34485;51.536;3.816;2023-08-06T03:22:09;14.40;99.90
48686;DHT22;34485;51.536;3.816;2023-08-06T03:24:35;14.40;99.90
48686;DHT22;34485;51.536;3.816;2023-08-06T03:27:00;14.50;99.90
48686;DHT22;34485;51.536;3.816;2023-08-06T03:29:26;14.50;99.90
48686;DHT22;34485;51.536;3.816;2023-08-06T03:31:52;14.50;99.90
48686;DHT22;34485;51.536;3.816;2023-08-06T03:34:17;14.50;99.90
48686;DHT22;34485;51.536;3.816;2023-08-06T03:36:43;14.50;99.90
48686;DHT22;34485;51.536;3.816;2023-08-06T03:39:08;14.50;99.90
48686;DHT22;34485;51.536;3.816;2023-08-06T03:41:34;14.60;99.90
48686;DHT22;34485;51.536;3.816;2023-08-06T03:44:00;14.60;99.90
48686;DHT22;34485;51.536;3.816;2023-08-06T03:46:28;14.60;99.90
48686;DHT22;34485;51.536;3.816;2023-08-06T03:48:53;14.60;99.90
48686;DHT22;34485;51.536;3.816;2023-08-06T03:51:19;14.50;99.90
48686;DHT22;34485;51.536;3.816;2023-08-06T03:53:44;14.50;99.90
48686;DHT22;34485;51.536;3.816;2023-08-06T03:56:10;14.50;99.90
48686;DHT22;34485;51.536;3.816;2023-08-06T03:58:36;14.50;99.90
48686;DHT22;34485;51.536;3.816;2023-08-06T04:01:02;14.50;99.90
48686;DHT22;34485;51.536;3.816;2023-08-06T04:03:28;14.50;99.90
48686;DHT22;34485;51.536;3.816;2023-08-06T04:05:54;14.50;99.90
48686;DHT22;34485;51.536;3.816;2023-08-06T04:08:20;14.40;99.90
48686;DHT22;34485;51.536;3.816;2023-08-06T04:10:49;14.40;99.90
48686;DHT22;34485;51.536;3.816;2023-08-06T04:13:15;14.40;99.90
48686;DHT22;34485;51.536;3.816;2023-08-06T04:15:40;14.40;99.90
48686;DHT22;34485;51.536;3.816;2023-08-06T04:18:06;14.40;99.90
48686;DHT22;34485;51.536;3.816;2023-08-06T04:20:31;14.40;99.90
48686;DHT22;34485;51.536;3.816;2023-08-06T04:22:57;14.30;99.90
48686;DHT22;34485;51.536;3.816;2023-08-06T04:25:22;14.30;99.90
48686;DHT22;34485;51.536;3.816;2023-08-06T04:27:48;14.30;99.90
48686;DHT22;34485;51.536;3.816;2023-08-06T04:30:14;14.30;99.90
48686;DHT22;34485;51.536;3.816;2023-08-06T04:32:40;14.30;99.90
48686;DHT22;34485;51.536;3.816;2023-08-06T04:35:05;14.30;99.90
48686;DHT22;34485;51.536;3.816;2023-08-06T04:37:31;14.30;99.90
48686;DHT22;34485;51.536;3.816;2023-08-06T04:39:57;14.30;99.90
48686;DHT22;34485;51.536;3.816;2023-08-06T04:42:23;14.30;99.90
48686;DHT22;34485;51.536;3.816;2023-08-06T04:44:48;14.40;99.90
48686;DHT22;34485;51.536;3.816;2023-08-06T04:47:14;14.40;99.90
48686;DHT22;34485;51.536;3.816;2023-08-06T04:49:39;14.40;99.90
48686;DHT22;34485;51.536;3.816;2023-08-06T04:52:05;14.40;99.90
48686;DHT22;34485;51.536;3.816;2023-08-06T04:54:31;14.40;99.90
48686;DHT22;34485;51.536;3.816;2023-08-06T04:56:57;14.40;99.90
48686;DHT22;34485;51.536;3.816;2023-08-06T04:59:22;14.30;99.90
48686;DHT22;34485;51.536;3.816;2023-08-06T05:01:48;14.30;99.90
48686;DHT22;34485;51.536;3.816;2023-08-06T05:04:14;14.30;99.90
48686;DHT22;34485;51.536;3.816;2023-08-06T05:06:39;14.30;99.90
48686;DHT22;34485;51.536;3.816;2023-08-06T05:09:05;14.30;99.90
48686;DHT22;34485;51.536;3.816;2023-08-06T05:11:31;14.30;99.90
48686;DHT22;34485;51.536;3.816;2023-08-06T05:13:57;14.30;99.90
48686;DHT22;34485;51.536;3.816;2023-08-06T05:16:23;14.40;99.90
48686;DHT22;34485;51.536;3.816;2023-08-06T05:18:49;14.30;99.90
48686;DHT22;34485;51.536;3.816;2023-08-06T05:21:14;14.40;99.90
48686;DHT22;34485;51.536;3.816;2023-08-06T05:23:42;14.30;99.90
48686;DHT22;34485;51.536;3.816;2023-08-06T05:26:07;14.40;99.90
48686;DHT22;34485;51.536;3.816;2023-08-06T05:28:34;14.40;99.90
48686;DHT22;34485;51.536;3.816;2023-08-06T05:31:03;14.50;99.90
48686;DHT22;34485;51.536;3.816;2023-08-06T05:33:29;14.60;99.90
48686;DHT22;34485;51.536;3.816;2023-08-06T05:35:54;14.60;99.90
48686;DHT22;34485;51.536;3.816;2023-08-06T05:38:20;14.60;99.90
48686;DHT22;34485;51.536;3.816;2023-08-06T05:40:46;14.70;99.90
48686;DHT22;34485;51.536;3.816;2023-08-06T05:43:11;14.80;99.90
48686;DHT22;34485;51.536;3.816;2023-08-06T05:45:37;14.80;99.90
48686;DHT22;34485;51.536;3.816;2023-08-06T05:48:02;14.90;99.90
48686;DHT22;34485;51.536;3.816;2023-08-06T05:50:28;14.90;99.90
48686;DHT22;34485;51.536;3.816;2023-08-06T05:52:54;14.90;99.90
48686;DHT22;34485;51.536;3.816;2023-08-06T05:55:22;15.00;99.90
48686;DHT22;34485;51.536;3.816;2023-08-06T05:57:48;15.10;99.90
48686;DHT22;34485;51.536;3.816;2023-08-06T06:00:13;15.20;99.90
48686;DHT22;34485;51.536;3.816;2023-08-06T06:02:39;15.20;99.90
48686;DHT22;34485;51.536;3.816;2023-08-06T06:05:05;15.20;99.90
48686;DHT22;34485;51.536;3.816;2023-08-06T06:07:30;15.20;99.90
48686;DHT22;34485;51.536;3.816;2023-08-06T06:09:56;15.20;99.90
48686;DHT22;34485;51.536;3.816;2023-08-06T06:12:21;15.30;99.90
48686;DHT22;34485;51.536;3.816;2023-08-06T06:14:47;15.30;99.90
48686;DHT22;34485;51.536;3.816;2023-08-06T06:17:13;15.40;99.90
48686;DHT22;34485;51.536;3.816;2023-08-06T06:19:39;15.50;99.90
48686;DHT22;34485;51.536;3.816;2023-08-06T06:22:04;15.50;99.90
48686;DHT22;34485;51.536;3.816;2023-08-06T06:24:30;15.60;99.90
48686;DHT22;34485;51.536;3.816;2023-08-06T06:26:55;15.60;99.90
48686;DHT22;34485;51.536;3.816;2023-08-06T06:29:21;15.60;99.90
48686;DHT22;34485;51.536;3.816;2023-08-06T06:31:46;15.60;99.90
48686;DHT22;34485;51.536;3.816;2023-08-06T06:34:12;15.60;99.90
48686;DHT22;34485;51.536;3.816;2023-08-06T06:36:38;15.60;99.90
48686;DHT22;34485;51.536;3.816;2023-08-06T06:39:03;15.60;99.90
48686;DHT22;34485;51.536;3.816;2023-08-06T06:41:29;15.50;99.90
48686;DHT22;34485;51.536;3.816;2023-08-06T06:43:56;15.50;99.90
48686;DHT22;34485;51.536;3.816;2023-08-06T06:46:22;15.50;99.90
48686;DHT22;34485;51.536;3.816;2023-08-06T06:48:48;15.60;99.90
48686;DHT22;34485;51.536;3.816;2023-08-06T06:51:13;15.60;99.90
48686;DHT22;34485;51.536;3.816;2023-08-06T06:53:39;15.60;99.90
48686;DHT22;34485;51.536;3.816;2023-08-06T06:56:05;15.60;99.90
48686;DHT22;34485;51.536;3.816;2023-08-06T06:58:31;15.60;99.90
48686;DHT22;34485;51.536;3.816;2023-08-06T07:00:57;15.50;99.90
48686;DHT22;34485;51.536;3.816;2023-08-06T07:03:23;15.60;99.90
48686;DHT22;34485;51.536;3.816;2023-08-06T07:05:49;15.60;99.90
48686;DHT22;34485;51.536;3.816;2023-08-06T07:08:15;15.50;99.90
48686;DHT22;34485;51.536;3.816;2023-08-06T07:10:42;15.60;99.90
48686;DHT22;34485;51.536;3.816;2023-08-06T07:13:08;15.60;99.90
48686;DHT22;34485;51.536;3.816;2023-08-06T07:15:34;15.60;99.90
48686;DHT22;34485;51.536;3.816;2023-08-06T07:17:59;15.60;99.90
48686;DHT22;34485;51.536;3.816;2023-08-06T07:20:25;15.50;99.90
48686;DHT22;34485;51.536;3.816;2023-08-06T07:22:51;15.40;99.90
48686;DHT22;34485;51.536;3.816;2023-08-06T07:25:17;15.40;99.90
48686;DHT22;34485;51.536;3.816;2023-08-06T07:27:42;15.40;99.90
48686;DHT22;34485;51.536;3.816;2023-08-06T07:30:08;15.50;99.90
48686;DHT22;34485;51.536;3.816;2023-08-06T07:32:34;15.50;99.90
48686;DHT22;34485;51.536;3.816;2023-08-06T07:34:59;15.60;99.90
48686;DHT22;34485;51.536;3.816;2023-08-06T07:37:26;15.70;99.90
48686;DHT22;34485;51.536;3.816;2023-08-06T07:39:58;15.70;99.90
48686;DHT22;34485;51.536;3.816;2023-08-06T07:42:23;15.80;99.90
48686;DHT22;34485;51.536;3.816;2023-08-06T07:44:53;16.00;99.90
48686;DHT22;34485;51.536;3.816;2023-08-06T07:47:19;16.10;99.90
48686;DHT22;34485;51.536;3.816;2023-08-06T07:49:45;16.30;99.90
48686;DHT22;34485;51.536;3.816;2023-08-06T07:52:11;16.40;99.90
48686;DHT22;34485;51.536;3.816;2023-08-06T07:54:36;16.40;99.90
48686;DHT22;34485;51.536;3.816;2023-08-06T07:57:02;16.40;99.90
48686;DHT22;34485;51.536;3.816;2023-08-06T07:59:28;16.30;99.90
48686;DHT22;34485;51.536;3.816;2023-08-06T08:01:54;16.30;99.90
48686;DHT22;34485;51.536;3.816;2023-08-06T08:04:19;16.20;99.90
48686;DHT22;34485;51.536;3.816;2023-08-06T08:06:46;16.10;99.90
48686;DHT22;34485;51.536;3.816;2023-08-06T08:09:12;16.00;99.90
48686;DHT22;34485;51.536;3.816;2023-08-06T08:11:39;16.00;99.90
48686;DHT22;34485;51.536;3.816;2023-08-06T08:14:05;16.00;99.90
48686;DHT22;34485;51.536;3.816;2023-08-06T08:16:30;16.10;99.90
48686;DHT22;34485;51.536;3.816;2023-08-06T08:18:56;16.20;99.90
48686;DHT22;34485;51.536;3.816;2023-08-06T08:21:22;16.20;99.90
48686;DHT22;34485;51.536;3.816;2023-08-06T08:23:50;16.10;99.90
48686;DHT22;34485;51.536;3.816;2023-08-06T08:26:15;16.10;99.90
48686;DHT22;34485;51.536;3.816;2023-08-06T08:28:41;16.00;99.90
48686;DHT22;34485;51.536;3.816;2023-08-06T08:31:10;15.90;99.90
48686;DHT22;34485;51.536;3.816;2023-08-06T08:33:37;15.90;99.90
48686;DHT22;34485;51.536;3.816;2023-08-06T08:36:03;15.80;99.90
48686;DHT22;34485;51.536;3.816;2023-08-06T08:38:29;15.60;99.90
48686;DHT22;34485;51.536;3.816;2023-08-06T08:40:54;15.60;99.90
48686;DHT22;34485;51.536;3.816;2023-08-06T08:43:23;15.50;99.90
48686;DHT22;34485;51.536;3.816;2023-08-06T08:45:53;15.50;99.90
48686;DHT22;34485;51.536;3.816;2023-08-06T08:48:24;15.40;99.90
48686;DHT22;34485;51.536;3.816;2023-08-06T08:50:50;15.40;99.90
48686;DHT22;34485;51.536;3.816;2023-08-06T08:53:17;15.30;99.90
48686;DHT22;34485;51.536;3.816;2023-08-06T08:55:47;15.30;99.90
48686;DHT22;34485;51.536;3.816;2023-08-06T08:58:14;15.30;99.90
48686;DHT22;34485;51.536;3.816;2023-08-06T09:00:42;15.40;99.90
48686;DHT22;34485;51.536;3.816;2023-08-06T09:03:08;15.40;99.90
48686;DHT22;34485;51.536;3.816;2023-08-06T09:05:34;15.40;99.90
48686;DHT22;34485;51.536;3.816;2023-08-06T09:08:03;15.30;99.90
48686;DHT22;34485;51.536;3.816;2023-08-06T09:10:29;15.30;99.90
48686;DHT22;34485;51.536;3.816;2023-08-06T09:12:56;15.30;99.90
48686;DHT22;34485;51.536;3.816;2023-08-06T09:15:26;15.20;99.90
48686;DHT22;34485;51.536;3.816;2023-08-06T09:17:53;15.20;99.90
48686;DHT22;34485;51.536;3.816;2023-08-06T09:20:19;15.20;99.90
48686;DHT22;34485;51.536;3.816;2023-08-06T09:22:44;15.30;99.90
48686;DHT22;34485;51.536;3.816;2023-08-06T09:25:11;15.50;99.90
48686;DHT22;34485;51.536;3.816;2023-08-06T09:27:39;15.50;99.90
48686;DHT22;34485;51.536;3.816;2023-08-06T09:30:07;15.70;99.90
48686;DHT22;34485;51.536;3.816;2023-08-06T09:32:46;15.90;99.90
48686;DHT22;34485;51.536;3.816;2023-08-06T09:35:17;16.00;99.90
48686;DHT22;34485;51.536;3.816;2023-08-06T09:37:42;16.10;99.90
48686;DHT22;34485;51.536;3.816;2023-08-06T09:40:27;16.10;99.90
48686;DHT22;34485;51.536;3.816;2023-08-06T09:42:54;16.10;99.90
48686;DHT22;34485;51.536;3.816;2023-08-06T09:45:20;16.10;99.90
48686;DHT22;34485;51.536;3.816;2023-08-06T09:47:50;16.00;99.90
48686;DHT22;34485;51.536;3.816;2023-08-06T09:50:19;16.10;99.90
48686;DHT22;34485;51.536;3.816;2023-08-06T09:52:46;16.10;99.90
48686;DHT22;34485;51.536;3.816;2023-08-06T09:55:14;16.00;99.90
48686;DHT22;34485;51.536;3.816;2023-08-06T09:57:41;15.90;99.90
48686;DHT22;34485;51.536;3.816;2023-08-06T10:00:08;15.80;99.90
48686;DHT22;34485;51.536;3.816;2023-08-06T10:02:38;15.80;99.90
48686;DHT22;34485;51.536;3.816;2023-08-06T10:05:05;15.80;99.90
48686;DHT22;34485;51.536;3.816;2023-08-06T10:07:31;15.80;99.90
48686;DHT22;34485;51.536;3.816;2023-08-06T10:09:58;15.90;99.90
48686;DHT22;34485;51.536;3.816;2023-08-06T10:12:23;16.00;99.90
48686;DHT22;34485;51.536;3.816;2023-08-06T10:14:52;16.10;99.90
48686;DHT22;34485;51.536;3.816;2023-08-06T10:17:20;16.00;99.90
48686;DHT22;34485;51.536;3.816;2023-08-06T10:19:47;16.00;99.90
48686;DHT22;34485;51.536;3.816;2023-08-06T10:22:17;15.90;99.90
48686;DHT22;34485;51.536;3.816;2023-08-06T10:27:22;16.00;99.90
48686;DHT22;34485;51.536;3.816;2023-08-06T10:29:48;16.10;99.90
48686;DHT22;34485;51.536;3.816;2023-08-06T10:32:17;16.30;99.90
48686;DHT22;34485;51.536;3.816;2023-08-06T10:34:59;16.50;99.90
48686;DHT22;34485;51.536;3.816;2023-08-06T10:37:36;16.60;99.90
48686;DHT22;34485;51.536;3.816;2023-08-06T10:40:03;16.60;99.90
48686;DHT22;34485;51.536;3.816;2023-08-06T10:42:31;16.50;99.90
48686;DHT22;34485;51.536;3.816;2023-08-06T10:45:19;16.40;99.90
48686;DHT22;34485;51.536;3.816;2023-08-06T10:47:46;16.20;99.90
48686;DHT22;34485;51.536;3.816;2023-08-06T10:50:16;15.90;99.90
48686;DHT22;34485;51.536;3.816;2023-08-06T10:52:45;15.60;99.90
48686;DHT22;34485;51.536;3.816;2023-08-06T10:55:12;15.50;99.90
48686;DHT22;34485;51.536;3.816;2023-08-06T10:57:38;15.50;99.90
48686;DHT22;34485;51.536;3.816;2023-08-06T11:00:05;15.40;99.90
48686;DHT22;34485;51.536;3.816;2023-08-06T11:02:36;15.30;99.90
48686;DHT22;34485;51.536;3.816;2023-08-06T11:05:08;15.30;99.90
48686;DHT22;34485;51.536;3.816;2023-08-06T11:07:35;15.40;99.90
48686;DHT22;34485;51.536;3.816;2023-08-06T11:10:05;15.40;99.90
48686;DHT22;34485;51.536;3.816;2023-08-06T11:12:32;15.40;99.90
48686;DHT22;34485;51.536;3.816;2023-08-06T11:14:58;15.50;99.90
48686;DHT22;34485;51.536;3.816;2023-08-06T11:17:24;15.70;99.90
48686;DHT22;34485;51.536;3.816;2023-08-06T11:19:50;15.70;99.90
48686;DHT22;34485;51.536;3.816;2023-08-06T11:22:16;15.60;99.90
48686;DHT22;34485;51.536;3.816;2023-08-06T11:24:43;15.50;99.90
48686;DHT22;34485;51.536;3.816;2023-08-06T11:27:15;15.40;99.90
48686;DHT22;34485;51.536;3.816;2023-08-06T11:29:42;15.40;99.90
48686;DHT22;34485;51.536;3.816;2023-08-06T11:32:08;15.40;99.90
48686;DHT22;34485;51.536;3.816;2023-08-06T11:34:34;15.50;99.90
48686;DHT22;34485;51.536;3.816;2023-08-06T11:37:00;15.60;99.90
48686;DHT22;34485;51.536;3.816;2023-08-06T11:39:27;15.60;99.90
48686;DHT22;34485;51.536;3.816;2023-08-06T11:41:54;15.70;99.90
48686;DHT22;34485;51.536;3.816;2023-08-06T11:44:21;15.80;99.90
48686;DHT22;34485;51.536;3.816;2023-08-06T11:46:55;15.90;99.90
48686;DHT22;34485;51.536;3.816;2023-08-06T11:49:41;15.80;99.90
48686;DHT22;34485;51.536;3.816;2023-08-06T11:52:19;15.70;99.90
48686;DHT22;34485;51.536;3.816;2023-08-06T12:00:02;15.10;99.90
48686;DHT22;34485;51.536;3.816;2023-08-06T12:02:34;14.90;99.90
48686;DHT22;34485;51.536;3.816;2023-08-06T12:05:09;14.80;99.90
48686;DHT22;34485;51.536;3.816;2023-08-06T12:07:38;14.60;99.90
48686;DHT22;34485;51.536;3.816;2023-08-06T12:10:04;14.60;99.90
48686;DHT22;34485;51.536;3.816;2023-08-06T12:12:30;14.60;99.90
48686;DHT22;34485;51.536;3.816;2023-08-06T12:14:56;14.50;99.90
48686;DHT22;34485;51.536;3.816;2023-08-06T12:17:24;14.40;99.90
48686;DHT22;34485;51.536;3.816;2023-08-06T12:19:50;14.40;99.90
48686;DHT22;34485;51.536;3.816;2023-08-06T12:22:16;14.40;99.90
48686;DHT22;34485;51.536;3.816;2023-08-06T12:24:43;14.50;99.90
48686;DHT22;34485;51.536;3.816;2023-08-06T12:27:09;14.50;99.90
48686;DHT22;34485;51.536;3.816;2023-08-06T12:29:36;14.50;99.90
48686;DHT22;34485;51.536;3.816;2023-08-06T12:32:03;14.50;99.90
48686;DHT22;34485;51.536;3.816;2023-08-06T12:34:29;14.50;99.90
48686;DHT22;34485;51.536;3.816;2023-08-06T12:36:55;14.60;99.90
48686;DHT22;34485;51.536;3.816;2023-08-06T12:39:20;14.70;99.90
48686;DHT22;34485;51.536;3.816;2023-08-06T12:41:47;14.70;99.90
48686;DHT22;34485;51.536;3.816;2023-08-06T12:44:13;14.70;99.90
48686;DHT22;34485;51.536;3.816;2023-08-06T12:46:39;14.70;99.90
48686;DHT22;34485;51.536;3.816;2023-08-06T12:49:04;14.60;99.90
48686;DHT22;34485;51.536;3.816;2023-08-06T12:51:31;14.60;99.90
48686;DHT22;34485;51.536;3.816;2023-08-06T12:53:59;14.60;99.90
48686;DHT22;34485;51.536;3.816;2023-08-06T12:56:24;14.60;99.90
48686;DHT22;34485;51.536;3.816;2023-08-06T12:58:50;14.60;99.90
48686;DHT22;34485;51.536;3.816;2023-08-06T13:01:16;14.60;99.90
48686;DHT22;34485;51.536;3.816;2023-08-06T13:03:41;14.60;99.90
48686;DHT22;34485;51.536;3.816;2023-08-06T13:06:07;14.70;99.90
48686;DHT22;34485;51.536;3.816;2023-08-06T13:08:35;14.70;99.90
48686;DHT22;34485;51.536;3.816;2023-08-06T13:11:01;14.70;99.90
48686;DHT22;34485;51.536;3.816;2023-08-06T13:13:27;14.70;99.90
48686;DHT22;34485;51.536;3.816;2023-08-06T13:15:52;14.70;99.90
48686;DHT22;34485;51.536;3.816;2023-08-06T13:18:18;14.70;99.90
48686;DHT22;34485;51.536;3.816;2023-08-06T13:20:44;14.70;99.90
48686;DHT22;34485;51.536;3.816;2023-08-06T13:23:09;14.60;99.90
48686;DHT22;34485;51.536;3.816;2023-08-06T13:25:35;14.70;99.90
48686;DHT22;34485;51.536;3.816;2023-08-06T13:28:05;14.70;99.90
48686;DHT22;34485;51.536;3.816;2023-08-06T13:30:31;14.80;99.90
48686;DHT22;34485;51.536;3.816;2023-08-06T13:32:56;14.90;99.90
48686;DHT22;34485;51.536;3.816;2023-08-06T13:35:23;15.00;99.90
48686;DHT22;34485;51.536;3.816;2023-08-06T13:37:49;15.10;99.90
48686;DHT22;34485;51.536;3.816;2023-08-06T13:40:15;15.20;99.90
48686;DHT22;34485;51.536;3.816;2023-08-06T13:42:40;15.10;99.90
48686;DHT22;34485;51.536;3.816;2023-08-06T13:45:06;15.10;99.90
48686;DHT22;34485;51.536;3.816;2023-08-06T13:47:32;15.10;99.90
48686;DHT22;34485;51.536;3.816;2023-08-06T13:49:58;15.00;99.90
48686;DHT22;34485;51.536;3.816;2023-08-06T13:52:26;15.00;99.90
48686;DHT22;34485;51.536;3.816;2023-08-06T13:54:52;15.00;99.90
48686;DHT22;34485;51.536;3.816;2023-08-06T13:57:17;15.10;99.90
48686;DHT22;34485;51.536;3.816;2023-08-06T13:59:43;15.20;99.90
48686;DHT22;34485;51.536;3.816;2023-08-06T14:02:09;15.30;99.90
48686;DHT22;34485;51.536;3.816;2023-08-06T14:04:35;15.30;99.90
48686;DHT22;34485;51.536;3.816;2023-08-06T14:07:03;15.20;99.90
48686;DHT22;34485;51.536;3.816;2023-08-06T14:09:28;15.20;99.90
48686;DHT22;34485;51.536;3.816;2023-08-06T14:11:54;15.30;99.90
48686;DHT22;34485;51.536;3.816;2023-08-06T14:14:20;15.40;99.90
48686;DHT22;34485;51.536;3.816;2023-08-06T14:16:51;15.70;99.90
48686;DHT22;34485;51.536;3.816;2023-08-06T14:19:18;15.80;99.90
48686;DHT22;34485;51.536;3.816;2023-08-06T14:21:44;15.90;99.90
48686;DHT22;34485;51.536;3.816;2023-08-06T14:24:10;16.10;99.90
48686;DHT22;34485;51.536;3.816;2023-08-06T14:26:35;16.10;99.90
48686;DHT22;34485;51.536;3.816;2023-08-06T14:29:01;16.20;99.90
48686;DHT22;34485;51.536;3.816;2023-08-06T14:31:27;16.30;99.90
48686;DHT22;34485;51.536;3.816;2023-08-06T14:33:52;16.50;99.90
48686;DHT22;34485;51.536;3.816;2023-08-06T14:36:19;16.60;99.90
48686;DHT22;34485;51.536;3.816;2023-08-06T14:38:44;16.50;99.90
48686;DHT22;34485;51.536;3.816;2023-08-06T14:41:10;16.40;99.90
48686;DHT22;34485;51.536;3.816;2023-08-06T14:43:36;16.20;99.90
48686;DHT22;34485;51.536;3.816;2023-08-06T14:46:02;16.10;99.90
48686;DHT22;34485;51.536;3.816;2023-08-06T14:48:28;16.10;99.90
48686;DHT22;34485;51.536;3.816;2023-08-06T14:50:54;16.00;99.90
48686;DHT22;34485;51.536;3.816;2023-08-06T14:53:20;16.10;99.90
48686;DHT22;34485;51.536;3.816;2023-08-06T14:55:47;16.10;99.90
48686;DHT22;34485;51.536;3.816;2023-08-06T14:58:13;16.20;99.90
48686;DHT22;34485;51.536;3.816;2023-08-06T15:00:39;16.30;99.90
48686;DHT22;34485;51.536;3.816;2023-08-06T15:03:04;16.30;99.90
48686;DHT22;34485;51.536;3.816;2023-08-06T15:05:30;16.30;99.90
48686;DHT22;34485;51.536;3.816;2023-08-06T15:07:55;16.30;99.90
48686;DHT22;34485;51.536;3.816;2023-08-06T15:10:21;16.40;99.90
48686;DHT22;34485;51.536;3.816;2023-08-06T15:12:48;16.50;99.90
48686;DHT22;34485;51.536;3.816;2023-08-06T15:15:14;16.60;99.90
48686;DHT22;34485;51.536;3.816;2023-08-06T15:17:40;16.70;99.90
48686;DHT22;34485;51.536;3.816;2023-08-06T15:20:06;16.80;99.90
48686;DHT22;34485;51.536;3.816;2023-08-06T15:22:32;17.00;99.90
48686;DHT22;34485;51.536;3.816;2023-08-06T15:24:59;17.10;99.90
48686;DHT22;34485;51.536;3.816;2023-08-06T15:27:25;17.20;99.90
48686;DHT22;34485;51.536;3.816;2023-08-06T15:29:51;17.30;99.70
48686;DHT22;34485;51.536;3.816;2023-08-06T15:32:17;17.30;98.90
48686;DHT22;34485;51.536;3.816;2023-08-06T15:34:42;17.40;98.80
48686;DHT22;34485;51.536;3.816;2023-08-06T15:37:08;17.50;99.90
48686;DHT22;34485;51.536;3.816;2023-08-06T15:39:34;17.50;98.80
48686;DHT22;34485;51.536;3.816;2023-08-06T15:41:59;17.60;98.60